sensor_id;sensor_type;location;lat;lon;timestamp;pressure;altitude;pressure_sealevel;temperature;humidity
81545;BME280;70990;50.618;7.346;2023-12-28T00:00:10;97856.41;;;8.04;62.97
81545;BME280;70990;50.618;7.346;2023-12-28T00:02:37;97857.59;;;8.03;62.57
81545;BME280;70990;50.618;7.346;2023-12-28T00:05:04;97870.91;;;8.08;63.34
81545;BME280;70990;50.618;7.346;2023-12-28T00:07:31;97865.41;;;8.08;62.89
81545;BME280;70990;50.618;7.346;2023-12-28T00:09:57;97870.13;;;8.12;63.22
81545;BME280;70990;50.618;7.346;2023-12-28T00:12:24;97870.47;;;8.14;63.40
81545;BME280;70990;50.618;7.346;2023-12-28T00:14:50;97873.28;;;8.06;63.22
81545;BME280;70990;50.618;7.346;2023-12-28T00:17:17;97878.38;;;8.12;63.31
81545;BME280;70990;50.618;7.346;2023-12-28T00:19:43;97883.44;;;8.17;63.50
81545;BME280;70990;50.618;7.346;2023-12-28T00:22:10;97881.88;;;8.16;63.45
81545;BME280;70990;50.618;7.346;2023-12-28T00:24:37;97893.75;;;8.05;63.96
81545;BME280;70990;50.618;7.346;2023-12-28T00:27:04;97886.63;;;8.12;64.01
81545;BME280;70990;50.618;7.346;2023-12-28T00:29:30;97910.56;;;8.15;63.70
81545;BME280;70990;50.618;7.346;2023-12-28T00:31:57;97899.13;;;8.20;63.67
81545;BME280;70990;50.618;7.346;2023-12-28T00:34:23;97903.06;;;8.22;64.76
81545;BME280;70990;50.618;7.346;2023-12-28T00:36:50;97905.31;;;8.38;65.47
81545;BME280;70990;50.618;7.346;2023-12-28T00:39:17;97897.94;;;8.21;64.25
81545;BME280;70990;50.618;7.346;2023-12-28T00:41:43;97892.78;;;8.26;65.08
81545;BME280;70990;50.618;7.346;2023-12-28T00:44:10;97894.34;;;8.31;65.47
81545;BME280;70990;50.618;7.346;2023-12-28T00:46:36;97910.06;;;8.34;66.35
81545;BME280;70990;50.618;7.346;2023-12-28T00:49:04;97930.50;;;8.36;67.76
81545;BME280;70990;50.618;7.346;2023-12-28T00:51:33;97925.00;;;8.36;68.53
81545;BME280;70990;50.618;7.346;2023-12-28T00:53:59;97923.00;;;8.40;70.17
81545;BME280;70990;50.618;7.346;2023-12-28T00:56:26;97915.56;;;8.34;71.31
81545;BME280;70990;50.618;7.346;2023-12-28T00:58:52;97938.03;;;8.22;71.67
81545;BME280;70990;50.618;7.346;2023-12-28T01:01:19;97925.84;;;8.23;70.75
81545;BME280;70990;50.618;7.346;2023-12-28T01:03:46;97938.47;;;8.17;71.10
81545;BME280;70990;50.618;7.346;2023-12-28T01:06:12;97944.81;;;8.10;70.70
81545;BME280;70990;50.618;7.346;2023-12-28T01:08:39;97953.13;;;7.99;71.57
81545;BME280;70990;50.618;7.346;2023-12-28T01:11:05;97940.13;;;8.00;71.89
81545;BME280;70990;50.618;7.346;2023-12-28T01:13:32;97944.50;;;7.97;72.19
81545;BME280;70990;50.618;7.346;2023-12-28T01:15:59;97947.25;;;7.97;72.46
81545;BME280;70990;50.618;7.346;2023-12-28T01:18:26;97946.84;;;7.99;72.46
81545;BME280;70990;50.618;7.346;2023-12-28T01:20:53;97943.34;;;7.91;72.46
81545;BME280;70990;50.618;7.346;2023-12-28T01:23:19;97944.97;;;7.85;72.29
81545;BME280;70990;50.618;7.346;2023-12-28T01:25:46;97957.53;;;7.86;72.60
81545;BME280;70990;50.618;7.346;2023-12-28T01:28:13;97946.94;;;7.81;73.21
81545;BME280;70990;50.618;7.346;2023-12-28T01:30:39;97949.69;;;7.81;74.36
81545;BME280;70990;50.618;7.346;2023-12-28T01:33:06;97939.88;;;7.77;74.55
81545;BME280;70990;50.618;7.346;2023-12-28T01:35:32;97954.34;;;7.91;75.31
81545;BME280;70990;50.618;7.346;2023-12-28T01:37:59;97946.94;;;7.85;75.09
81545;BME280;70990;50.618;7.346;2023-12-28T01:40:26;97963.06;;;7.76;75.02
81545;BME280;70990;50.618;7.346;2023-12-28T01:42:53;97959.47;;;7.89;75.83
81545;BME280;70990;50.618;7.346;2023-12-28T01:45:20;97967.72;;;7.89;76.23
81545;BME280;70990;50.618;7.346;2023-12-28T01:47:47;97978.78;;;7.75;76.32
81545;BME280;70990;50.618;7.346;2023-12-28T01:50:15;97980.75;;;7.75;76.70
81545;BME280;70990;50.618;7.346;2023-12-28T01:52:42;98000.75;;;7.82;76.68
81545;BME280;70990;50.618;7.346;2023-12-28T01:55:08;97999.59;;;7.80;77.48
81545;BME280;70990;50.618;7.346;2023-12-28T01:57:35;98010.53;;;7.97;77.46
81545;BME280;70990;50.618;7.346;2023-12-28T02:00:03;98002.66;;;7.99;77.40
81545;BME280;70990;50.618;7.346;2023-12-28T02:02:38;98002.31;;;7.90;78.08
81545;BME280;70990;50.618;7.346;2023-12-28T02:05:05;98001.47;;;7.97;78.22
81545;BME280;70990;50.618;7.346;2023-12-28T02:07:32;98009.31;;;8.02;78.47
81545;BME280;70990;50.618;7.346;2023-12-28T02:09:58;98008.53;;;8.01;78.41
81545;BME280;70990;50.618;7.346;2023-12-28T02:12:25;98002.66;;;7.99;78.49
81545;BME280;70990;50.618;7.346;2023-12-28T02:14:53;97995.63;;;7.91;78.37
81545;BME280;70990;50.618;7.346;2023-12-28T02:17:23;97991.69;;;7.92;78.48
81545;BME280;70990;50.618;7.346;2023-12-28T02:19:53;97995.22;;;7.93;79.02
81545;BME280;70990;50.618;7.346;2023-12-28T02:22:23;97998.75;;;7.90;79.44
81545;BME280;70990;50.618;7.346;2023-12-28T02:27:29;98009.38;;;7.88;79.28
81545;BME280;70990;50.618;7.346;2023-12-28T02:29:56;98007.81;;;7.90;79.72
81545;BME280;70990;50.618;7.346;2023-12-28T02:32:31;98013.34;;;7.76;80.21
81545;BME280;70990;50.618;7.346;2023-12-28T02:35:05;97999.94;;;7.92;79.47
81545;BME280;70990;50.618;7.346;2023-12-28T02:37:33;98001.44;;;8.00;79.80
81545;BME280;70990;50.618;7.346;2023-12-28T02:40:01;98005.09;;;7.80;79.80
81545;BME280;70990;50.618;7.346;2023-12-28T02:42:28;98008.66;;;7.80;80.08
81545;BME280;70990;50.618;7.346;2023-12-28T02:44:54;98009.78;;;7.83;80.52
81545;BME280;70990;50.618;7.346;2023-12-28T02:47:21;97989.78;;;7.75;80.50
81545;BME280;70990;50.618;7.346;2023-12-28T02:49:48;98000.78;;;7.79;80.30
81545;BME280;70990;50.618;7.346;2023-12-28T02:52:15;98003.47;;;7.89;80.33
81545;BME280;70990;50.618;7.346;2023-12-28T02:54:42;98003.88;;;7.91;80.75
81545;BME280;70990;50.618;7.346;2023-12-28T02:57:08;97992.50;;;7.86;80.89
81545;BME280;70990;50.618;7.346;2023-12-28T02:59:35;97970.16;;;7.69;81.28
81545;BME280;70990;50.618;7.346;2023-12-28T03:02:01;97981.16;;;7.77;81.25
81545;BME280;70990;50.618;7.346;2023-12-28T03:04:28;97993.75;;;7.74;81.87
81545;BME280;70990;50.618;7.346;2023-12-28T03:06:54;97989.41;;;7.69;81.74
81545;BME280;70990;50.618;7.346;2023-12-28T03:09:21;97975.28;;;7.71;82.21
81545;BME280;70990;50.618;7.346;2023-12-28T03:11:47;97981.19;;;7.66;82.54
81545;BME280;70990;50.618;7.346;2023-12-28T03:14:15;97980.03;;;7.60;82.52
81545;BME280;70990;50.618;7.346;2023-12-28T03:16:41;97984.38;;;7.61;82.57
81545;BME280;70990;50.618;7.346;2023-12-28T03:19:08;97993.75;;;7.74;82.07
81545;BME280;70990;50.618;7.346;2023-12-28T03:21:39;97998.13;;;7.50;82.74
81545;BME280;70990;50.618;7.346;2023-12-28T03:24:06;98007.16;;;7.51;83.04
81545;BME280;70990;50.618;7.346;2023-12-28T03:26:32;98000.09;;;7.53;83.19
81545;BME280;70990;50.618;7.346;2023-12-28T03:29:05;97999.34;;;7.46;83.24
81545;BME280;70990;50.618;7.346;2023-12-28T03:31:31;97983.59;;;7.50;83.17
81545;BME280;70990;50.618;7.346;2023-12-28T03:33:59;97986.03;;;7.34;83.08
81545;BME280;70990;50.618;7.346;2023-12-28T03:36:25;98003.31;;;7.31;83.62
81545;BME280;70990;50.618;7.346;2023-12-28T03:38:52;97987.63;;;7.20;84.03
81545;BME280;70990;50.618;7.346;2023-12-28T03:41:19;98003.78;;;6.83;84.58
81545;BME280;70990;50.618;7.346;2023-12-28T03:43:46;97998.28;;;6.72;85.34
81545;BME280;70990;50.618;7.346;2023-12-28T03:46:13;98010.44;;;6.75;84.78
81545;BME280;70990;50.618;7.346;2023-12-28T03:48:40;98006.09;;;6.81;85.05
81545;BME280;70990;50.618;7.346;2023-12-28T03:51:07;98006.91;;;6.92;84.99
81545;BME280;70990;50.618;7.346;2023-12-28T03:53:34;98007.31;;;6.73;85.32
81545;BME280;70990;50.618;7.346;2023-12-28T03:56:01;98005.75;;;6.68;86.07
81545;BME280;70990;50.618;7.346;2023-12-28T03:58:28;97997.09;;;6.70;86.28
81545;BME280;70990;50.618;7.346;2023-12-28T04:00:54;97995.53;;;6.69;86.50
81545;BME280;70990;50.618;7.346;2023-12-28T04:03:21;97990.84;;;6.66;86.65
81545;BME280;70990;50.618;7.346;2023-12-28T04:05:48;97986.13;;;6.63;86.56
81545;BME280;70990;50.618;7.346;2023-12-28T04:08:14;97987.69;;;6.64;86.46
81545;BME280;70990;50.618;7.346;2023-12-28T04:10:41;97993.56;;;6.59;86.92
81545;BME280;70990;50.618;7.346;2023-12-28T04:13:07;97990.03;;;6.58;87.25
81545;BME280;70990;50.618;7.346;2023-12-28T04:15:34;97992.41;;;6.45;87.97
81545;BME280;70990;50.618;7.346;2023-12-28T04:18:01;97985.34;;;6.59;87.15
81545;BME280;70990;50.618;7.346;2023-12-28T04:20:28;97990.06;;;6.62;87.84
81545;BME280;70990;50.618;7.346;2023-12-28T04:22:54;97992.41;;;6.70;86.83
81545;BME280;70990;50.618;7.346;2023-12-28T04:25:21;97993.97;;;6.68;87.21
81545;BME280;70990;50.618;7.346;2023-12-28T04:27:48;97985.75;;;6.68;87.04
81545;BME280;70990;50.618;7.346;2023-12-28T04:30:14;97987.31;;;6.65;87.46
81545;BME280;70990;50.618;7.346;2023-12-28T04:32:42;97974.34;;;6.62;87.94
81545;BME280;70990;50.618;7.346;2023-12-28T04:35:08;97973.97;;;6.57;88.16
81545;BME280;70990;50.618;7.346;2023-12-28T04:37:35;97971.63;;;6.59;87.81
81545;BME280;70990;50.618;7.346;2023-12-28T04:40:02;97960.25;;;6.57;88.40
81545;BME280;70990;50.618;7.346;2023-12-28T04:42:28;97975.16;;;6.56;88.17
81545;BME280;70990;50.618;7.346;2023-12-28T04:44:55;97972.00;;;6.46;88.73
81545;BME280;70990;50.618;7.346;2023-12-28T04:47:21;97971.63;;;6.55;88.53
81545;BME280;70990;50.618;7.346;2023-12-28T04:49:48;97972.41;;;6.45;89.12
81545;BME280;70990;50.618;7.346;2023-12-28T04:52:15;97977.91;;;6.41;89.11
81545;BME280;70990;50.618;7.346;2023-12-28T04:54:41;97968.84;;;6.37;89.42
81545;BME280;70990;50.618;7.346;2023-12-28T04:57:08;97976.72;;;6.42;88.92
81545;BME280;70990;50.618;7.346;2023-12-28T04:59:38;97975.53;;;6.40;89.21
81545;BME280;70990;50.618;7.346;2023-12-28T05:02:05;97974.75;;;6.46;89.05
81545;BME280;70990;50.618;7.346;2023-12-28T05:04:32;97961.03;;;6.39;89.42
81545;BME280;70990;50.618;7.346;2023-12-28T05:06:58;97967.72;;;6.49;88.88
81545;BME280;70990;50.618;7.346;2023-12-28T05:09:25;97973.97;;;6.60;88.63
81545;BME280;70990;50.618;7.346;2023-12-28T05:11:51;97966.53;;;6.46;88.61
81545;BME280;70990;50.618;7.346;2023-12-28T05:14:21;97970.44;;;6.45;88.75
81545;BME280;70990;50.618;7.346;2023-12-28T05:16:49;97972.78;;;6.51;88.96
81545;BME280;70990;50.618;7.346;2023-12-28T05:19:16;97971.63;;;6.55;88.53
81545;BME280;70990;50.618;7.346;2023-12-28T05:21:43;97975.94;;;6.53;89.01
81545;BME280;70990;50.618;7.346;2023-12-28T05:24:09;97980.25;;;6.61;88.37
81545;BME280;70990;50.618;7.346;2023-12-28T05:26:35;97991.63;;;6.59;88.44
81545;BME280;70990;50.618;7.346;2023-12-28T05:29:02;97987.69;;;6.60;88.72
81545;BME280;70990;50.618;7.346;2023-12-28T05:31:28;97993.19;;;6.57;88.32
81545;BME280;70990;50.618;7.346;2023-12-28T05:33:55;97993.59;;;6.66;88.33
81545;BME280;70990;50.618;7.346;2023-12-28T05:36:22;97988.47;;;6.64;88.58
81545;BME280;70990;50.618;7.346;2023-12-28T05:38:48;97982.19;;;6.71;88.54
81545;BME280;70990;50.618;7.346;2023-12-28T05:41:15;97991.22;;;6.75;88.10
81545;BME280;70990;50.618;7.346;2023-12-28T05:43:41;98002.59;;;6.84;87.29
81545;BME280;70990;50.618;7.346;2023-12-28T05:46:08;97993.19;;;6.78;87.48
81545;BME280;70990;50.618;7.346;2023-12-28T05:48:34;98013.19;;;6.85;87.08
81545;BME280;70990;50.618;7.346;2023-12-28T05:51:01;98004.16;;;6.85;87.19
81545;BME280;70990;50.618;7.346;2023-12-28T05:53:28;98009.28;;;6.86;87.22
81545;BME280;70990;50.618;7.346;2023-12-28T05:55:54;98001.81;;;6.80;87.56
81545;BME280;70990;50.618;7.346;2023-12-28T05:58:21;97998.66;;;6.92;87.07
81545;BME280;70990;50.618;7.346;2023-12-28T06:00:47;98004.94;;;6.82;87.53
81545;BME280;70990;50.618;7.346;2023-12-28T06:03:14;97998.66;;;6.92;87.19
81545;BME280;70990;50.618;7.346;2023-12-28T06:05:41;97995.94;;;6.78;87.44
81545;BME280;70990;50.618;7.346;2023-12-28T06:08:07;97998.28;;;6.83;87.06
81545;BME280;70990;50.618;7.346;2023-12-28T06:10:34;97991.59;;;6.84;87.11
81545;BME280;70990;50.618;7.346;2023-12-28T06:13:01;97994.75;;;6.82;86.96
81545;BME280;70990;50.618;7.346;2023-12-28T06:15:27;98008.88;;;6.92;87.41
81545;BME280;70990;50.618;7.346;2023-12-28T06:17:54;97999.44;;;6.96;87.31
81545;BME280;70990;50.618;7.346;2023-12-28T06:20:20;98002.19;;;6.82;87.25
81545;BME280;70990;50.618;7.346;2023-12-28T06:22:47;97995.13;;;6.81;87.60
81545;BME280;70990;50.618;7.346;2023-12-28T06:25:14;98023.00;;;6.90;87.24
81545;BME280;70990;50.618;7.346;2023-12-28T06:27:40;98015.56;;;6.80;87.66
81545;BME280;70990;50.618;7.346;2023-12-28T06:30:07;98018.28;;;6.91;86.86
81545;BME280;70990;50.618;7.346;2023-12-28T06:32:34;98026.50;;;6.94;86.57
81545;BME280;70990;50.618;7.346;2023-12-28T06:35:00;98041.81;;;6.95;86.50
81545;BME280;70990;50.618;7.346;2023-12-28T06:37:27;98041.81;;;7.06;85.94
81545;BME280;70990;50.618;7.346;2023-12-28T06:39:53;98041.41;;;7.14;85.65
81545;BME280;70990;50.618;7.346;2023-12-28T06:42:20;98053.59;;;7.10;85.31
81545;BME280;70990;50.618;7.346;2023-12-28T06:44:46;98051.22;;;7.08;85.02
81545;BME280;70990;50.618;7.346;2023-12-28T06:47:13;98063.78;;;7.16;84.90
81545;BME280;70990;50.618;7.346;2023-12-28T06:49:40;98058.31;;;7.06;84.64
81545;BME280;70990;50.618;7.346;2023-12-28T06:52:07;98068.09;;;7.17;84.84
81545;BME280;70990;50.618;7.346;2023-12-28T06:54:34;98057.13;;;7.17;84.16
81545;BME280;70990;50.618;7.346;2023-12-28T06:57:00;98056.31;;;7.20;83.74
81545;BME280;70990;50.618;7.346;2023-12-28T06:59:27;98057.88;;;7.25;83.81
81545;BME280;70990;50.618;7.346;2023-12-28T07:01:53;98046.50;;;7.19;83.82
81545;BME280;70990;50.618;7.346;2023-12-28T07:04:20;98034.75;;;7.15;83.67
81545;BME280;70990;50.618;7.346;2023-12-28T07:06:46;98044.13;;;7.25;83.38
81545;BME280;70990;50.618;7.346;2023-12-28T07:09:13;98043.38;;;7.17;83.46
81545;BME280;70990;50.618;7.346;2023-12-28T07:11:39;98038.25;;;7.19;83.51
81545;BME280;70990;50.618;7.346;2023-12-28T07:14:06;98034.34;;;7.20;83.28
81545;BME280;70990;50.618;7.346;2023-12-28T07:16:32;98043.38;;;7.17;83.18
81545;BME280;70990;50.618;7.346;2023-12-28T07:18:59;98044.94;;;7.22;82.91
81545;BME280;70990;50.618;7.346;2023-12-28T07:21:25;98049.66;;;7.21;82.65
81545;BME280;70990;50.618;7.346;2023-12-28T07:23:52;98045.72;;;7.29;82.28
81545;BME280;70990;50.618;7.346;2023-12-28T07:26:18;98047.28;;;7.23;82.20
81545;BME280;70990;50.618;7.346;2023-12-28T07:28:45;98055.53;;;7.20;82.17
81545;BME280;70990;50.618;7.346;2023-12-28T07:31:22;98053.16;;;7.25;82.02
81545;BME280;70990;50.618;7.346;2023-12-28T07:33:48;98059.88;;;7.24;82.25
81545;BME280;70990;50.618;7.346;2023-12-28T07:36:15;98042.97;;;7.19;82.10
81545;BME280;70990;50.618;7.346;2023-12-28T07:38:42;98058.28;;;7.27;81.60
81545;BME280;70990;50.618;7.346;2023-12-28T07:41:08;98064.94;;;7.37;80.84
81545;BME280;70990;50.618;7.346;2023-12-28T07:43:35;98056.28;;;7.45;80.97
81545;BME280;70990;50.618;7.346;2023-12-28T07:46:02;98055.91;;;7.40;80.87
81545;BME280;70990;50.618;7.346;2023-12-28T07:48:30;98059.03;;;7.42;80.22
81545;BME280;70990;50.618;7.346;2023-12-28T07:50:57;98062.94;;;7.44;80.45
81545;BME280;70990;50.618;7.346;2023-12-28T07:53:24;98063.72;;;7.45;80.12
81545;BME280;70990;50.618;7.346;2023-12-28T07:55:50;98069.66;;;7.43;80.19
81545;BME280;70990;50.618;7.346;2023-12-28T07:58:17;98072.38;;;7.54;79.99
81545;BME280;70990;50.618;7.346;2023-12-28T08:00:43;98079.47;;;7.41;79.95
81545;BME280;70990;50.618;7.346;2023-12-28T08:03:10;98082.56;;;7.50;79.95
81545;BME280;70990;50.618;7.346;2023-12-28T08:05:36;98085.69;;;7.59;79.73
81545;BME280;70990;50.618;7.346;2023-12-28T08:08:03;98078.28;;;7.49;80.03
81545;BME280;70990;50.618;7.346;2023-12-28T08:10:30;98081.78;;;7.53;79.87
81545;BME280;70990;50.618;7.346;2023-12-28T08:12:56;98088.47;;;7.52;79.58
81545;BME280;70990;50.618;7.346;2023-12-28T08:15:23;98096.72;;;7.52;79.77
81545;BME280;70990;50.618;7.346;2023-12-28T08:17:49;98091.97;;;7.63;78.98
81545;BME280;70990;50.618;7.346;2023-12-28T08:20:16;98091.59;;;7.57;79.42
81545;BME280;70990;50.618;7.346;2023-12-28T08:22:43;98097.47;;;7.56;79.35
81545;BME280;70990;50.618;7.346;2023-12-28T08:25:09;98087.28;;;7.53;79.62
81545;BME280;70990;50.618;7.346;2023-12-28T08:27:36;98108.06;;;7.64;78.86
81545;BME280;70990;50.618;7.346;2023-12-28T08:30:03;98101.78;;;7.71;78.66
81545;BME280;70990;50.618;7.346;2023-12-28T08:32:30;98093.13;;;7.73;78.70
81545;BME280;70990;50.618;7.346;2023-12-28T08:34:57;98115.53;;;7.71;78.71
81545;BME280;70990;50.618;7.346;2023-12-28T08:37:23;98110.78;;;7.82;78.17
81545;BME280;70990;50.618;7.346;2023-12-28T08:39:50;98104.94;;;7.73;78.49
81545;BME280;70990;50.618;7.346;2023-12-28T08:42:16;98117.06;;;7.83;78.59
81545;BME280;70990;50.618;7.346;2023-12-28T08:44:43;98118.63;;;7.84;77.61
81545;BME280;70990;50.618;7.346;2023-12-28T08:47:12;98121.00;;;7.85;77.98
81545;BME280;70990;50.618;7.346;2023-12-28T08:49:38;98118.63;;;7.87;78.44
81545;BME280;70990;50.618;7.346;2023-12-28T08:52:05;98126.13;;;7.80;78.10
81545;BME280;70990;50.618;7.346;2023-12-28T08:54:31;98120.16;;;7.95;78.48
81545;BME280;70990;50.618;7.346;2023-12-28T08:56:58;98125.69;;;7.95;77.51
81545;BME280;70990;50.618;7.346;2023-12-28T08:59:25;98129.22;;;7.96;77.88
81545;BME280;70990;50.618;7.346;2023-12-28T09:01:55;98129.22;;;7.99;77.43
81545;BME280;70990;50.618;7.346;2023-12-28T09:04:21;98123.31;;;8.04;77.12
81545;BME280;70990;50.618;7.346;2023-12-28T09:06:48;98126.41;;;8.06;76.68
81545;BME280;70990;50.618;7.346;2023-12-28T09:09:14;98123.28;;;8.08;76.43
81545;BME280;70990;50.618;7.346;2023-12-28T09:11:41;98131.09;;;8.20;76.38
81545;BME280;70990;50.618;7.346;2023-12-28T09:14:08;98132.72;;;8.10;76.69
81545;BME280;70990;50.618;7.346;2023-12-28T09:16:34;98129.53;;;8.23;75.96
81545;BME280;70990;50.618;7.346;2023-12-28T09:19:01;98136.94;;;8.40;76.04
81545;BME280;70990;50.618;7.346;2023-12-28T09:21:27;98135.78;;;8.34;76.00
81545;BME280;70990;50.618;7.346;2023-12-28T09:23:54;98133.78;;;8.41;75.35
81545;BME280;70990;50.618;7.346;2023-12-28T09:26:21;98138.06;;;8.53;75.58
81545;BME280;70990;50.618;7.346;2023-12-28T09:28:47;98149.81;;;8.57;74.41
81545;BME280;70990;50.618;7.346;2023-12-28T09:31:14;98155.34;;;8.61;74.66
81545;BME280;70990;50.618;7.346;2023-12-28T09:33:41;98143.03;;;8.76;74.74
81545;BME280;70990;50.618;7.346;2023-12-28T09:36:09;98149.38;;;8.69;74.13
81545;BME280;70990;50.618;7.346;2023-12-28T09:38:35;98152.88;;;8.80;73.45
81545;BME280;70990;50.618;7.346;2023-12-28T09:41:11;98149.31;;;8.80;73.06
81545;BME280;70990;50.618;7.346;2023-12-28T09:43:44;98149.97;;;9.02;72.73
81545;BME280;70990;50.618;7.346;2023-12-28T09:46:12;98159.06;;;8.99;71.80
81545;BME280;70990;50.618;7.346;2023-12-28T09:48:38;98162.53;;;9.06;71.95
81545;BME280;70990;50.618;7.346;2023-12-28T09:51:05;98166.03;;;9.14;70.42
81545;BME280;70990;50.618;7.346;2023-12-28T09:53:32;98168.25;;;9.33;70.67
81545;BME280;70990;50.618;7.346;2023-12-28T09:55:59;98179.44;;;9.12;70.32
81545;BME280;70990;50.618;7.346;2023-12-28T09:58:27;98162.78;;;9.26;71.00
81545;BME280;70990;50.618;7.346;2023-12-28T10:00:54;98168.25;;;9.33;70.80
81545;BME280;70990;50.618;7.346;2023-12-28T10:03:20;98169.56;;;9.18;70.15
81545;BME280;70990;50.618;7.346;2023-12-28T10:05:47;98166.31;;;9.30;69.88
81545;BME280;70990;50.618;7.346;2023-12-28T10:08:15;98169.50;;;9.21;70.26
81545;BME280;70990;50.618;7.346;2023-12-28T10:10:42;98157.16;;;9.40;69.54
81545;BME280;70990;50.618;7.346;2023-12-28T10:13:10;98167.00;;;9.41;69.39
81545;BME280;70990;50.618;7.346;2023-12-28T10:15:37;98163.41;;;9.48;69.06
81545;BME280;70990;50.618;7.346;2023-12-28T10:18:05;98156.38;;;9.40;68.73
81545;BME280;70990;50.618;7.346;2023-12-28T10:20:31;98167.44;;;9.36;69.78
81545;BME280;70990;50.618;7.346;2023-12-28T10:22:59;98165.00;;;9.45;69.38
81545;BME280;70990;50.618;7.346;2023-12-28T10:25:27;98154.75;;;9.46;69.55
81545;BME280;70990;50.618;7.346;2023-12-28T10:27:54;98155.34;;;9.23;69.38
81545;BME280;70990;50.618;7.346;2023-12-28T10:30:21;98147.25;;;9.46;69.53
81545;BME280;70990;50.618;7.346;2023-12-28T10:32:48;98145.72;;;9.42;69.44
81545;BME280;70990;50.618;7.346;2023-12-28T10:35:15;98142.53;;;9.47;68.93
81545;BME280;70990;50.618;7.346;2023-12-28T10:37:43;98146.47;;;9.49;69.01
81545;BME280;70990;50.618;7.346;2023-12-28T10:40:14;98149.50;;;9.58;68.99
81545;BME280;70990;50.618;7.346;2023-12-28T10:42:49;98150.75;;;9.54;68.92
81545;BME280;70990;50.618;7.346;2023-12-28T10:45:16;98140.84;;;9.60;67.74
81545;BME280;70990;50.618;7.346;2023-12-28T10:47:46;98132.31;;;9.85;67.54
81545;BME280;70990;50.618;7.346;2023-12-28T10:50:16;98143.03;;;9.79;67.33
81545;BME280;70990;50.618;7.346;2023-12-28T10:52:45;98127.19;;;9.87;67.56
81545;BME280;70990;50.618;7.346;2023-12-28T10:55:31;98146.19;;;9.78;67.20
81545;BME280;70990;50.618;7.346;2023-12-28T10:58:17;98133.09;;;9.85;67.26
81545;BME280;70990;50.618;7.346;2023-12-28T11:00:53;98133.88;;;9.86;66.70
81545;BME280;70990;50.618;7.346;2023-12-28T11:03:26;98133.94;;;9.79;67.49
81545;BME280;70990;50.618;7.346;2023-12-28T11:05:55;98119.81;;;9.73;67.15
81545;BME280;70990;50.618;7.346;2023-12-28T11:08:23;98127.25;;;9.80;66.66
81545;BME280;70990;50.618;7.346;2023-12-28T11:10:50;98116.16;;;9.83;66.82
81545;BME280;70990;50.618;7.346;2023-12-28T11:13:20;98115.97;;;10.01;65.94
81545;BME280;70990;50.618;7.346;2023-12-28T11:15:47;98106.13;;;10.34;65.46
81545;BME280;70990;50.618;7.346;2023-12-28T11:18:15;98109.75;;;10.27;63.90
81545;BME280;70990;50.618;7.346;2023-12-28T11:20:43;98096.78;;;10.55;63.48
81545;BME280;70990;50.618;7.346;2023-12-28T11:23:10;98102.00;;;10.76;62.61
81545;BME280;70990;50.618;7.346;2023-12-28T11:25:37;98077.09;;;10.79;61.63
81545;BME280;70990;50.618;7.346;2023-12-28T11:28:10;98079.72;;;11.37;59.87
81545;BME280;70990;50.618;7.346;2023-12-28T11:30:38;98082.88;;;10.31;63.36
81545;BME280;70990;50.618;7.346;2023-12-28T11:33:05;98076.19;;;10.86;61.78
81545;BME280;70990;50.618;7.346;2023-12-28T11:35:34;98074.84;;;10.98;61.04
81545;BME280;70990;50.618;7.346;2023-12-28T11:38:03;98070.38;;;11.04;59.76
81545;BME280;70990;50.618;7.346;2023-12-28T11:40:30;98075.41;;;11.36;60.84
81545;BME280;70990;50.618;7.346;2023-12-28T11:42:57;98070.75;;;11.29;60.32
81545;BME280;70990;50.618;7.346;2023-12-28T11:45:24;98089.75;;;11.27;59.31
81545;BME280;70990;50.618;7.346;2023-12-28T11:48:01;98084.44;;;12.02;58.94
81545;BME280;70990;50.618;7.346;2023-12-28T11:50:28;98066.94;;;11.66;59.50
81545;BME280;70990;50.618;7.346;2023-12-28T11:52:54;98070.41;;;11.70;58.43
81545;BME280;70990;50.618;7.346;2023-12-28T11:55:22;98057.47;;;12.06;57.50
81545;BME280;70990;50.618;7.346;2023-12-28T11:57:49;98056.94;;;12.31;57.31
81545;BME280;70990;50.618;7.346;2023-12-28T12:00:16;98056.63;;;11.90;57.07
81545;BME280;70990;50.618;7.346;2023-12-28T12:02:43;98044.88;;;11.39;58.63
81545;BME280;70990;50.618;7.346;2023-12-28T12:05:10;98060.19;;;11.67;58.30
81545;BME280;70990;50.618;7.346;2023-12-28T12:07:37;98043.69;;;12.03;58.39
81545;BME280;70990;50.618;7.346;2023-12-28T12:10:04;98062.00;;;12.17;57.96
81545;BME280;70990;50.618;7.346;2023-12-28T12:12:30;98044.13;;;11.82;57.37
81545;BME280;70990;50.618;7.346;2023-12-28T12:14:57;98046.59;;;11.96;57.65
81545;BME280;70990;50.618;7.346;2023-12-28T12:17:24;98051.28;;;11.79;56.70
81545;BME280;70990;50.618;7.346;2023-12-28T12:19:50;98043.97;;;11.89;57.57
81545;BME280;70990;50.618;7.346;2023-12-28T12:22:17;98038.56;;;12.21;56.65
81545;BME280;70990;50.618;7.346;2023-12-28T12:24:47;98028.94;;;11.90;56.75
81545;BME280;70990;50.618;7.346;2023-12-28T12:27:13;98038.94;;;11.84;57.71
81545;BME280;70990;50.618;7.346;2023-12-28T12:29:40;98043.41;;;11.11;58.75
81545;BME280;70990;50.618;7.346;2023-12-28T12:32:06;98036.97;;;11.18;58.87
81545;BME280;70990;50.618;7.346;2023-12-28T12:34:33;98043.09;;;11.06;58.99
81545;BME280;70990;50.618;7.346;2023-12-28T12:37:00;98040.13;;;11.40;58.65
81545;BME280;70990;50.618;7.346;2023-12-28T12:39:27;98038.81;;;11.24;58.99
81545;BME280;70990;50.618;7.346;2023-12-28T12:41:53;98034.50;;;11.00;58.65
81545;BME280;70990;50.618;7.346;2023-12-28T12:44:20;98038.41;;;10.79;59.95
81545;BME280;70990;50.618;7.346;2023-12-28T12:46:47;98028.72;;;10.68;60.04
81545;BME280;70990;50.618;7.346;2023-12-28T12:49:15;98031.91;;;11.36;58.95
81545;BME280;70990;50.618;7.346;2023-12-28T12:51:44;98017.91;;;10.50;59.79
81545;BME280;70990;50.618;7.346;2023-12-28T12:54:11;98038.41;;;10.52;60.03
81545;BME280;70990;50.618;7.346;2023-12-28T12:56:37;98029.31;;;10.79;59.66
81545;BME280;70990;50.618;7.346;2023-12-28T12:59:04;98051.03;;;10.54;60.67
81545;BME280;70990;50.618;7.346;2023-12-28T13:01:31;98040.88;;;10.97;60.27
81545;BME280;70990;50.618;7.346;2023-12-28T13:03:58;98046.53;;;11.13;58.96
81545;BME280;70990;50.618;7.346;2023-12-28T13:06:24;98067.69;;;10.46;60.12
81545;BME280;70990;50.618;7.346;2023-12-28T13:08:51;98036.63;;;10.66;59.73
81545;BME280;70990;50.618;7.346;2023-12-28T13:11:17;98035.94;;;10.31;60.23